Phaedra — D5JD2 — position and weather

sailwx.info

Track history (hours):
 
Tides and Currents Weather Stations Pressure Air Temp Water Temp Dewpoint Dewpoint Depression Visibility Wind Speed Wind Dir Waves Ship Positions

Phaedra

Last reported at 2018-Feb-10 07:21 UTC. Time now 2018-Feb-18 04:51 UTC.
Position N 38°53' E 009°19'.

Length 229 m; draft 14.1 m.

Type: Cargo ship. MMSI: 636017064.

Date/timePositionNaut miles runAvg speedWind from/ knotsBaromVisibWave heightAir tempDewpointWater temp
2018-Feb-10 07:21N 38°53' E 009°19'410.6
2018-Feb-10 07:00N 38°51' E 009°15'510.8
2018-Feb-10 06:29N 38°48' E 009°09'1311.0
2018-Feb-10 05:18N 38°42' E 008°54'510.9
2018-Feb-10 04:48N 38°40' E 008°47'410.9
2018-Feb-10 04:27N 38°39' E 008°43'610.9
2018-Feb-10 03:53N 38°37' E 008°35'55210.7
2018-Feb-08 00:11N 36°19' W 002°38'210.4
2018-Feb-08 00:00N 36°19' W 002°40'510.3
2018-Feb-07 23:30N 36°18' W 002°46'510.4
2018-Feb-07 23:00N 36°17' W 002°53'510.7
2018-Feb-07 22:30N 36°16' W 002°59'510.8
2018-Feb-07 22:00N 36°15' W 003°06'510.7
2018-Feb-07 21:30N 36°15' W 003°12'105 6.6
2018-Feb-07 05:36N 36°08' W 005°23'0 0.2
2018-Feb-07 05:18N 36°08' W 005°23'0 0.2
2018-Feb-07 04:16N 36°08' W 005°23'0 1.6
2018-Feb-07 04:00N 36°08' W 005°23'2 4.4
2018-Feb-07 03:30N 36°06' W 005°22'3 6.4
2018-Feb-07 03:00N 36°03' W 005°20'3 6.7
2018-Feb-07 02:30N 35°60' W 005°21'613.0
2018-Feb-07 02:00N 35°57' W 005°28'283 9.2
2018-Feb-05 19:15N 38°55' W 010°06'310.4
2018-Feb-05 18:57N 38°58' W 010°06'510.4
2018-Feb-05 18:27N 39°03' W 010°06'510.3
2018-Feb-05 17:58N 39°08' W 010°06'510.3
2018-Feb-05 17:30N 39°13' W 010°06'  
2018-Feb-02 14:20N 51°56' W 005°52'513.6
2018-Feb-02 13:58N 52°01' W 005°51'613.2
2018-Feb-02 13:30N 52°07' W 005°50'612.7
2018-Feb-02 13:00N 52°13' W 005°48'611.8
2018-Feb-02 12:30N 52°19' W 005°46'611.1
2018-Feb-02 12:00N 52°24' W 005°44'18 9.4
2018-Feb-02 10:02N 52°42' W 005°37'0 8.0
2018-Feb-02 10:00N 52°43' W 005°37'4 7.9
2018-Feb-02 09:30N 52°46' W 005°35'4 7.7
2018-Feb-02 09:00N 52°50' W 005°34'4 7.2
2018-Feb-02 08:30N 52°54' W 005°33'4 7.1
2018-Feb-02 08:00N 52°57' W 005°32'6910.8
2018-Feb-02 01:36N 54°06' W 005°18'510.3
2018-Feb-02 01:07N 54°11' W 005°18'110.3
2018-Feb-02 01:00N 54°12' W 005°17'510.1
2018-Feb-02 00:30N 54°17' W 005°17'510.3
2018-Feb-02 00:00N 54°22' W 005°16'510.6
2018-Feb-01 23:30N 54°28' W 005°15'611.4
2018-Feb-01 23:00N 54°33' W 005°17'1313.0
2018-Feb-01 22:00N 54°45' W 005°26'713.3
2018-Feb-01 21:30N 54°51' W 005°31'2713.6
2018-Feb-01 19:30N 55°14' W 005°57'612.7
2018-Feb-01 19:00N 55°19' W 006°03'5 9.8
2018-Feb-01 18:30N 55°22' W 006°10'5 9.5
2018-Feb-01 18:00N 55°23' W 006°18'5 9.5
2018-Feb-01 17:30N 55°25' W 006°26'4 8.6
2018-Feb-01 17:00N 55°27' W 006°33'4 8.4
2018-Feb-01 16:30N 55°30' W 006°37'4 7.8
2018-Feb-01 15:57N 55°34' W 006°42'3 7.4
2018-Feb-01 15:28N 55°37' W 006°45'3 5.9
2018-Feb-01 14:59N 55°39' W 006°47'10 6.5
2018-Feb-01 13:29N 55°47' W 006°57'4 8.8
2018-Feb-01 12:59N 55°51' W 007°01'5 9.5
2018-Feb-01 12:28N 55°55' W 007°06'  
Track history (hours):
 
Tides and Currents Weather Stations Pressure Air Temp Water Temp Dewpoint Dewpoint Depression Visibility Wind Speed Wind Dir Waves Ship Positions

Phaedra

Last reported at 2018-Feb-10 07:21 UTC. Time now 2018-Feb-18 04:51 UTC.
Position N 38°53' E 009°19'.

Length 229 m; draft 14.1 m.

Type: Cargo ship. MMSI: 636017064.

Date/timePositionNaut miles runAvg speedWind from/ knotsBaromVisibWave heightAir tempDewpointWater temp
2018-Feb-10 07:21N 38°53' E 009°19'410.6
2018-Feb-10 07:00N 38°51' E 009°15'510.8
2018-Feb-10 06:29N 38°48' E 009°09'1311.0
2018-Feb-10 05:18N 38°42' E 008°54'510.9
2018-Feb-10 04:48N 38°40' E 008°47'410.9
2018-Feb-10 04:27N 38°39' E 008°43'610.9
2018-Feb-10 03:53N 38°37' E 008°35'55210.7
2018-Feb-08 00:11N 36°19' W 002°38'210.4
2018-Feb-08 00:00N 36°19' W 002°40'510.3
2018-Feb-07 23:30N 36°18' W 002°46'510.4
2018-Feb-07 23:00N 36°17' W 002°53'510.7
2018-Feb-07 22:30N 36°16' W 002°59'510.8
2018-Feb-07 22:00N 36°15' W 003°06'510.7
2018-Feb-07 21:30N 36°15' W 003°12'105 6.6
2018-Feb-07 05:36N 36°08' W 005°23'0 0.2
2018-Feb-07 05:18N 36°08' W 005°23'0 0.2
2018-Feb-07 04:16N 36°08' W 005°23'0 1.6
2018-Feb-07 04:00N 36°08' W 005°23'2 4.4
2018-Feb-07 03:30N 36°06' W 005°22'3 6.4
2018-Feb-07 03:00N 36°03' W 005°20'3 6.7
2018-Feb-07 02:30N 35°60' W 005°21'613.0
2018-Feb-07 02:00N 35°57' W 005°28'283 9.2
2018-Feb-05 19:15N 38°55' W 010°06'310.4
2018-Feb-05 18:57N 38°58' W 010°06'510.4
2018-Feb-05 18:27N 39°03' W 010°06'510.3
2018-Feb-05 17:58N 39°08' W 010°06'510.3
2018-Feb-05 17:30N 39°13' W 010°06'  
2018-Feb-02 14:20N 51°56' W 005°52'513.6
2018-Feb-02 13:58N 52°01' W 005°51'613.2
2018-Feb-02 13:30N 52°07' W 005°50'612.7
2018-Feb-02 13:00N 52°13' W 005°48'611.8
2018-Feb-02 12:30N 52°19' W 005°46'611.1
2018-Feb-02 12:00N 52°24' W 005°44'18 9.4
2018-Feb-02 10:02N 52°42' W 005°37'0 8.0
2018-Feb-02 10:00N 52°43' W 005°37'4 7.9
2018-Feb-02 09:30N 52°46' W 005°35'4 7.7
2018-Feb-02 09:00N 52°50' W 005°34'4 7.2
2018-Feb-02 08:30N 52°54' W 005°33'4 7.1
2018-Feb-02 08:00N 52°57' W 005°32'6910.8
2018-Feb-02 01:36N 54°06' W 005°18'510.3
2018-Feb-02 01:07N 54°11' W 005°18'110.3
2018-Feb-02 01:00N 54°12' W 005°17'510.1
2018-Feb-02 00:30N 54°17' W 005°17'510.3
2018-Feb-02 00:00N 54°22' W 005°16'510.6
2018-Feb-01 23:30N 54°28' W 005°15'611.4
2018-Feb-01 23:00N 54°33' W 005°17'1313.0
2018-Feb-01 22:00N 54°45' W 005°26'713.3
2018-Feb-01 21:30N 54°51' W 005°31'2713.6
2018-Feb-01 19:30N 55°14' W 005°57'612.7
2018-Feb-01 19:00N 55°19' W 006°03'5 9.8
2018-Feb-01 18:30N 55°22' W 006°10'5 9.5
2018-Feb-01 18:00N 55°23' W 006°18'5 9.5
2018-Feb-01 17:30N 55°25' W 006°26'4 8.6
2018-Feb-01 17:00N 55°27' W 006°33'4 8.4
2018-Feb-01 16:30N 55°30' W 006°37'4 7.8
2018-Feb-01 15:57N 55°34' W 006°42'3 7.4
2018-Feb-01 15:28N 55°37' W 006°45'3 5.9
2018-Feb-01 14:59N 55°39' W 006°47'10 6.5
2018-Feb-01 13:29N 55°47' W 006°57'4 8.8
2018-Feb-01 12:59N 55°51' W 007°01'5 9.5
2018-Feb-01 12:28N 55°55' W 007°06'  

Dump ship's entire track history